createdAt,value
2022-11-29T00:00:59.888Z,100.00
2022-11-29T00:04:03.218Z,100.00
2022-11-29T00:07:07.340Z,100.00
2022-11-29T00:10:10.816Z,100.00
2022-11-29T00:13:13.693Z,100.00
2022-11-29T00:16:16.442Z,100.00
2022-11-29T00:19:19.824Z,100.00
2022-11-29T00:22:25.172Z,100.00
2022-11-29T00:25:28.569Z,100.00
2022-11-29T00:28:31.305Z,100.00
2022-11-29T00:31:34.679Z,100.00
2022-11-29T00:34:37.978Z,100.00
2022-11-29T00:37:42.036Z,100.00
2022-11-29T00:40:44.780Z,100.00
2022-11-29T00:43:47.455Z,100.00
2022-11-29T00:46:50.373Z,100.00
2022-11-29T00:49:53.072Z,100.00
2022-11-29T00:52:57.067Z,100.00
2022-11-29T00:55:59.935Z,100.00
2022-11-29T00:59:02.599Z,100.00
2022-11-29T01:02:05.794Z,100.00
2022-11-29T01:05:09.195Z,100.00
2022-11-29T01:08:13.938Z,100.00
2022-11-29T01:11:18.780Z,100.00
2022-11-29T01:14:21.484Z,100.00
2022-11-29T01:17:24.097Z,100.00
2022-11-29T01:20:27.310Z,100.00
2022-11-29T01:23:32.091Z,100.00
2022-11-29T01:26:34.848Z,100.00
2022-11-29T01:29:37.507Z,100.00
2022-11-29T01:32:40.495Z,100.00
2022-11-29T01:35:48.764Z,100.00
2022-11-29T01:38:53.491Z,100.00
2022-11-29T01:41:56.156Z,100.00
2022-11-29T01:45:09.514Z,100.00
2022-11-29T01:48:14.710Z,100.00
2022-11-29T01:51:17.542Z,100.00
2022-11-29T01:54:22.709Z,100.00
2022-11-29T01:57:26.079Z,100.00
2022-11-29T02:00:29.620Z,100.00
2022-11-29T02:03:32.377Z,100.00
2022-11-29T02:06:35.665Z,100.00
2022-11-29T02:09:39.965Z,100.00
2022-11-29T02:12:55.429Z,100.00
2022-11-29T02:16:04.320Z,100.00
2022-11-29T02:19:26.593Z,100.00
2022-11-29T02:22:34.282Z,100.00
2022-11-29T02:25:58.492Z,100.00
2022-11-29T02:29:32.780Z,100.00
2022-11-29T02:33:03.396Z,100.00
2022-11-29T02:36:19.994Z,100.00
2022-11-29T02:39:37.235Z,100.00
2022-11-29T02:43:11.937Z,100.00
2022-11-29T02:46:38.269Z,100.00
2022-11-29T02:50:20.279Z,100.00
2022-11-29T02:53:31.247Z,100.00
2022-11-29T02:56:41.668Z,100.00
2022-11-29T02:59:53.686Z,100.00
2022-11-29T03:03:03.292Z,100.00
2022-11-29T03:06:17.900Z,100.00
2022-11-29T03:09:32.385Z,100.00
2022-11-29T03:12:41.182Z,100.00
2022-11-29T03:15:51.958Z,100.00
2022-11-29T03:19:06.377Z,100.00
2022-11-29T03:22:19.086Z,100.00
2022-11-29T03:25:28.341Z,100.00
2022-11-29T03:28:34.533Z,100.00
2022-11-29T03:31:42.230Z,100.00
2022-11-29T03:34:57.759Z,100.00
2022-11-29T03:38:09.927Z,100.00
2022-11-29T03:41:24.266Z,100.00
2022-11-29T03:44:32.839Z,100.00
2022-11-29T03:47:41.366Z,100.00
2022-11-29T03:50:50.532Z,100.00
2022-11-29T03:53:58.431Z,100.00
2022-11-29T03:57:02.022Z,100.00
2022-11-29T04:00:08.755Z,100.00
2022-11-29T04:03:49.482Z,100.00
2022-11-29T04:07:08.584Z,100.00
2022-11-29T04:10:27.105Z,100.00
2022-11-29T04:13:47.564Z,100.00
2022-11-29T04:17:27.942Z,100.00
2022-11-29T04:21:30.372Z,100.00
2022-11-29T04:24:52.527Z,100.00
2022-11-29T04:28:14.606Z,100.00
2022-11-29T04:31:29.545Z,100.00
2022-11-29T04:35:15.924Z,100.00
2022-11-29T04:38:44.371Z,100.00
2022-11-29T04:42:25.620Z,100.00
2022-11-29T04:46:05.658Z,100.00
2022-11-29T04:49:37.075Z,100.00
2022-11-29T04:53:01.236Z,100.00
2022-11-29T04:56:16.373Z,100.00
2022-11-29T04:59:24.120Z,100.00
2022-11-29T05:02:35.073Z,100.00
2022-11-29T05:05:45.165Z,100.00
2022-11-29T05:08:53.889Z,100.00
2022-11-29T05:12:09.547Z,100.00
2022-11-29T05:15:33.072Z,100.00
2022-11-29T05:18:58.484Z,100.00
2022-11-29T05:22:13.669Z,100.00
2022-11-29T05:25:33.757Z,100.00
2022-11-29T05:28:46.680Z,100.00
2022-11-29T05:31:59.193Z,100.00
2022-11-29T05:35:38.686Z,100.00
2022-11-29T05:39:08.766Z,100.00
2022-11-29T05:42:27.578Z,100.00
2022-11-29T05:45:36.658Z,100.00
2022-11-29T05:48:47.577Z,100.00
2022-11-29T05:52:01.071Z,100.00
2022-11-29T05:55:17.712Z,100.00
2022-11-29T05:58:30.507Z,100.00
2022-11-29T06:01:43.537Z,100.00
2022-11-29T06:05:03.555Z,100.00
2022-11-29T06:08:14.433Z,100.00
2022-11-29T06:11:21.704Z,100.00
2022-11-29T06:14:41.239Z,100.00
2022-11-29T06:18:03.888Z,100.00
2022-11-29T06:21:18.555Z,100.00
2022-11-29T06:24:39.148Z,100.00
2022-11-29T06:28:04.334Z,100.00
2022-11-29T06:31:16.206Z,100.00
2022-11-29T06:34:34.153Z,100.00
2022-11-29T06:37:39.599Z,100.00
2022-11-29T06:40:44.420Z,100.00
2022-11-29T06:43:48.036Z,100.00
2022-11-29T06:46:57.574Z,100.00
2022-11-29T06:50:17.760Z,100.00
2022-11-29T06:53:26.184Z,100.00
2022-11-29T06:56:41.012Z,100.00
2022-11-29T06:59:55.450Z,100.00
2022-11-29T07:03:15.763Z,100.00
2022-11-29T07:06:22.671Z,100.00
2022-11-29T07:09:31.273Z,100.00
2022-11-29T07:12:35.965Z,100.00
2022-11-29T07:15:41.719Z,100.00
2022-11-29T07:18:53.108Z,100.00
2022-11-29T07:22:05.079Z,100.00
2022-11-29T07:25:20.047Z,100.00
2022-11-29T07:28:39.181Z,100.00
2022-11-29T07:31:53.622Z,100.00
2022-11-29T07:35:04.985Z,100.00
2022-11-29T07:38:17.845Z,100.00
2022-11-29T07:41:28.495Z,100.00
2022-11-29T07:44:38.502Z,100.00
2022-11-29T07:47:41.299Z,100.00
2022-11-29T07:50:44.546Z,100.00
2022-11-29T07:53:47.321Z,100.00
2022-11-29T07:56:49.957Z,100.00
2022-11-29T07:59:53.943Z,100.00
2022-11-29T08:02:56.627Z,100.00
2022-11-29T08:05:59.508Z,100.00
2022-11-29T08:09:02.653Z,100.00
2022-11-29T08:12:05.795Z,100.00
2022-11-29T08:15:11.180Z,100.00
2022-11-29T08:18:14.168Z,100.00
2022-11-29T08:21:18.095Z,100.00
2022-11-29T08:24:20.883Z,100.00
2022-11-29T08:27:23.540Z,100.00
2022-11-29T08:30:27.653Z,100.00
2022-11-29T08:33:30.483Z,100.00
2022-11-29T08:36:33.273Z,100.00
2022-11-29T08:39:35.952Z,100.00
2022-11-29T08:42:38.671Z,100.00
2022-11-29T08:45:42.717Z,100.00
2022-11-29T08:48:45.407Z,100.00
2022-11-29T08:51:48.087Z,100.00
2022-11-29T08:54:50.757Z,100.00
2022-11-29T08:57:55.428Z,100.00
2022-11-29T09:00:59.856Z,100.00
2022-11-29T09:04:07.023Z,100.00
2022-11-29T09:07:09.681Z,100.00
2022-11-29T09:10:12.446Z,100.00
2022-11-29T09:13:15.437Z,100.00
2022-11-29T09:16:21.457Z,100.00
2022-11-29T09:19:24.161Z,100.00
2022-11-29T09:22:27.122Z,100.00
2022-11-29T09:25:30.052Z,100.00
2022-11-29T09:28:33.254Z,100.00
2022-11-29T09:31:37.424Z,100.00
2022-11-29T09:34:42.196Z,100.00
2022-11-29T09:37:45.069Z,100.00
2022-11-29T09:40:53.928Z,100.00
2022-11-29T09:44:05.564Z,100.00
2022-11-29T09:47:28.113Z,100.00
2022-11-29T09:50:34.952Z,100.00
2022-11-29T09:53:51.720Z,100.00
2022-11-29T09:56:56.700Z,100.00
2022-11-29T10:00:04.315Z,100.00
2022-11-29T10:03:18.507Z,100.00
2022-11-29T10:06:26.632Z,100.00
2022-11-29T10:09:34.912Z,100.00
2022-11-29T10:12:42.502Z,100.00
2022-11-29T10:15:48.370Z,100.00
2022-11-29T10:18:57.769Z,100.00
2022-11-29T10:22:06.125Z,100.00
2022-11-29T10:25:11.379Z,100.00
2022-11-29T10:28:17.533Z,100.00
2022-11-29T10:31:26.827Z,100.00
2022-11-29T10:34:32.117Z,100.00
2022-11-29T10:37:35.524Z,100.00
2022-11-29T10:40:40.793Z,100.00
2022-11-29T10:43:43.733Z,100.00
2022-11-29T10:46:46.438Z,100.00
2022-11-29T10:49:50.529Z,100.00
2022-11-29T10:52:59.780Z,100.00
2022-11-29T10:56:07.984Z,100.00
2022-11-29T10:59:21.655Z,100.00
2022-11-29T11:02:24.484Z,100.00
2022-11-29T11:05:28.897Z,100.00
2022-11-29T11:08:33.568Z,100.00
2022-11-29T11:11:36.393Z,100.00
2022-11-29T11:14:39.749Z,100.00
2022-11-29T11:17:56.619Z,100.00
2022-11-29T11:21:02.632Z,100.00
2022-11-29T11:24:06.261Z,100.00
2022-11-29T11:27:09.088Z,100.00
2022-11-29T11:30:23.407Z,100.00
2022-11-29T11:33:27.596Z,100.00
2022-11-29T11:36:31.643Z,100.00
2022-11-29T11:39:34.296Z,100.00
2022-11-29T11:42:42.709Z,100.00
2022-11-29T11:45:53.771Z,100.00
2022-11-29T11:48:56.585Z,100.00
2022-11-29T11:52:02.325Z,100.00
2022-11-29T11:55:08.578Z,100.00
2022-11-29T11:58:20.642Z,100.00
2022-11-29T12:01:29.080Z,100.00
2022-11-29T12:04:37.904Z,100.00
2022-11-29T12:11:16.723Z,100.00
2022-11-29T12:14:27.261Z,99.86
2022-11-29T12:17:37.256Z,100.00
2022-11-29T12:20:45.728Z,99.95
2022-11-29T12:23:55.139Z,99.75
2022-11-29T12:27:04.522Z,99.54
2022-11-29T12:30:14.237Z,99.74
2022-11-29T12:33:27.976Z,98.29
2022-11-29T12:36:42.432Z,98.44
2022-11-29T12:39:57.191Z,99.13
2022-11-29T12:43:11.082Z,99.86
2022-11-29T12:46:21.210Z,99.75
2022-11-29T12:49:31.544Z,100.00
2022-11-29T12:52:41.956Z,99.70
2022-11-29T12:55:55.501Z,99.53
2022-11-29T12:59:13.710Z,100.00
2022-11-29T13:02:28.587Z,100.00
2022-11-29T13:05:46.297Z,99.26
2022-11-29T13:09:18.450Z,99.91
2022-11-29T13:12:33.248Z,99.47
2022-11-29T13:15:46.375Z,99.50
2022-11-29T13:18:57.604Z,100.00
2022-11-29T13:22:10.420Z,100.00
2022-11-29T13:25:18.577Z,100.00
2022-11-29T13:28:26.739Z,99.69
2022-11-29T13:31:32.140Z,99.53
2022-11-29T13:34:43.040Z,99.74
2022-11-29T13:37:54.996Z,100.00
2022-11-29T13:41:03.744Z,100.00
2022-11-29T13:44:17.875Z,100.00
2022-11-29T13:47:21.604Z,100.00
2022-11-29T13:50:42.159Z,100.00
2022-11-29T13:53:49.207Z,100.00
2022-11-29T13:57:03.601Z,100.00
2022-11-29T14:00:34.996Z,99.56
2022-11-29T14:03:41.740Z,100.00
2022-11-29T14:06:48.173Z,99.66
2022-11-29T14:09:58.974Z,100.00
2022-11-29T14:13:05.091Z,100.00
2022-11-29T14:16:20.014Z,100.00
2022-11-29T14:19:33.012Z,100.00
2022-11-29T14:22:36.815Z,100.00
2022-11-29T14:26:01.196Z,100.00
2022-11-29T14:29:42.578Z,100.00
2022-11-29T14:32:57.408Z,100.00
2022-11-29T14:36:20.072Z,100.00
2022-11-29T14:39:32.684Z,100.00
2022-11-29T14:42:35.644Z,100.00
2022-11-29T14:45:38.705Z,100.00
2022-11-29T14:48:47.084Z,100.00
2022-11-29T14:52:16.462Z,100.00
2022-11-29T14:55:31.640Z,100.00
2022-11-29T14:58:34.607Z,100.00
2022-11-29T15:01:42.799Z,100.00
2022-11-29T15:04:49.827Z,100.00
2022-11-29T15:08:02.832Z,100.00
2022-11-29T15:11:15.583Z,100.00
2022-11-29T15:14:27.755Z,100.00
2022-11-29T15:17:38.552Z,100.00
2022-11-29T15:21:07.008Z,100.00
2022-11-29T15:24:13.123Z,100.00
2022-11-29T15:27:18.147Z,100.00
2022-11-29T15:30:23.128Z,100.00
2022-11-29T15:33:27.034Z,100.00
2022-11-29T15:36:31.486Z,100.00
2022-11-29T15:39:37.922Z,100.00
2022-11-29T15:42:43.452Z,100.00
2022-11-29T15:45:51.601Z,100.00
2022-11-29T15:48:54.586Z,100.00
2022-11-29T15:52:03.187Z,100.00
2022-11-29T15:55:10.938Z,100.00
2022-11-29T15:58:15.482Z,100.00
2022-11-29T16:01:21.265Z,100.00
2022-11-29T16:04:27.228Z,100.00
2022-11-29T16:07:34.255Z,100.00
2022-11-29T16:10:43.493Z,100.00
2022-11-29T16:14:04.415Z,100.00
2022-11-29T16:17:07.326Z,100.00
2022-11-29T16:20:24.730Z,100.00
2022-11-29T16:23:36.163Z,100.00
2022-11-29T16:26:42.811Z,100.00
2022-11-29T16:29:47.440Z,100.00
2022-11-29T16:32:53.742Z,100.00
2022-11-29T16:36:06.019Z,100.00
2022-11-29T16:39:20.318Z,100.00
2022-11-29T16:42:26.362Z,100.00
2022-11-29T16:45:35.078Z,100.00
2022-11-29T16:48:38.687Z,100.00
2022-11-29T16:51:48.202Z,100.00
2022-11-29T16:54:52.485Z,100.00
2022-11-29T16:57:55.346Z,100.00
2022-11-29T17:00:58.290Z,100.00
2022-11-29T17:04:01.583Z,100.00
2022-11-29T17:07:06.941Z,100.00
2022-11-29T17:10:15.981Z,100.00
2022-11-29T17:13:19.176Z,100.00
2022-11-29T17:16:23.613Z,100.00
2022-11-29T17:19:26.522Z,100.00
2022-11-29T17:22:29.389Z,100.00
2022-11-29T17:25:33.694Z,100.00
2022-11-29T17:28:36.449Z,100.00
2022-11-29T17:31:39.671Z,100.00
2022-11-29T17:34:42.621Z,100.00
2022-11-29T17:37:45.559Z,100.00
2022-11-29T17:40:49.962Z,99.42
2022-11-29T17:43:54.818Z,99.35
2022-11-29T17:46:57.874Z,99.57
2022-11-29T17:50:03.804Z,99.04
2022-11-29T17:53:06.690Z,99.04
2022-11-29T17:56:13.126Z,98.69
2022-11-29T17:59:16.051Z,98.56
2022-11-29T18:02:18.956Z,99.25
2022-11-29T18:05:21.863Z,98.89
2022-11-29T18:08:26.021Z,99.03
2022-11-29T18:11:40.313Z,98.76
2022-11-29T18:14:50.266Z,98.89
2022-11-29T18:17:53.123Z,98.01
2022-11-29T18:20:58.611Z,98.21
2022-11-29T18:24:02.885Z,98.09
2022-11-29T18:27:07.212Z,98.94
2022-11-29T18:30:11.269Z,99.15
2022-11-29T18:33:14.118Z,99.27
2022-11-29T18:36:18.882Z,98.93
2022-11-29T18:39:23.618Z,99.22
2022-11-29T18:42:27.874Z,98.70
2022-11-29T18:45:30.944Z,98.61
2022-11-29T18:48:34.176Z,98.71
2022-11-29T18:51:38.334Z,98.86
2022-11-29T18:54:41.266Z,98.60
2022-11-29T18:57:49.175Z,97.66
2022-11-29T19:00:52.301Z,97.96
2022-11-29T19:03:58.201Z,98.21
2022-11-29T19:07:01.150Z,97.26
2022-11-29T19:10:04.038Z,97.04
2022-11-29T19:13:08.526Z,97.01
2022-11-29T19:16:15.448Z,97.38
2022-11-29T19:19:19.738Z,96.68
2022-11-29T19:22:22.635Z,96.75
2022-11-29T19:25:25.414Z,96.66
2022-11-29T19:28:29.473Z,97.42
2022-11-29T19:31:32.732Z,97.60
2022-11-29T19:34:38.290Z,97.66
2022-11-29T19:37:42.057Z,97.23
2022-11-29T19:40:44.836Z,96.97
2022-11-29T19:43:50.007Z,97.13
2022-11-29T19:46:52.966Z,97.52
2022-11-29T19:50:00.822Z,97.54
2022-11-29T19:53:05.197Z,97.25
2022-11-29T19:56:09.771Z,97.09
2022-11-29T19:59:14.098Z,96.16
2022-11-29T20:02:16.958Z,96.91
2022-11-29T20:05:20.136Z,97.41
2022-11-29T20:08:23.149Z,97.73
2022-11-29T20:11:27.421Z,97.87
2022-11-29T20:14:32.279Z,98.06
2022-11-29T20:17:35.138Z,98.26
2022-11-29T20:20:38.071Z,98.48
2022-11-29T20:23:42.118Z,98.36
2022-11-29T20:26:46.880Z,98.64
2022-11-29T20:29:51.125Z,98.80
2022-11-29T20:32:54.333Z,98.84
2022-11-29T20:36:03.942Z,98.66
2022-11-29T20:39:18.139Z,98.35
2022-11-29T20:42:51.576Z,97.94
2022-11-29T20:45:56.215Z,98.08
2022-11-29T20:49:05.991Z,97.59
2022-11-29T20:52:15.244Z,98.44
2022-11-29T20:55:18.343Z,98.72
2022-11-29T20:58:21.174Z,98.63
2022-11-29T21:01:25.496Z,98.71
2022-11-29T21:04:28.354Z,97.93
2022-11-29T21:07:31.268Z,97.69
2022-11-29T21:10:34.482Z,97.71
2022-11-29T21:13:38.284Z,97.55
2022-11-29T21:16:43.004Z,97.37
2022-11-29T21:19:46.440Z,97.72
2022-11-29T21:22:57.991Z,97.76
2022-11-29T21:26:08.596Z,97.07
2022-11-29T21:29:17.409Z,97.13
2022-11-29T21:32:24.083Z,97.74
2022-11-29T21:35:27.364Z,98.25
2022-11-29T21:38:30.496Z,97.96
2022-11-29T21:41:33.544Z,98.38
2022-11-29T21:44:36.664Z,98.34
2022-11-29T21:47:40.891Z,98.28
2022-11-29T21:50:43.779Z,98.58
2022-11-29T21:53:46.874Z,98.29
2022-11-29T21:56:49.737Z,97.97
2022-11-29T21:59:52.788Z,98.24
2022-11-29T22:02:58.652Z,98.44
2022-11-29T22:06:05.943Z,98.86
2022-11-29T22:09:09.169Z,98.89
2022-11-29T22:12:32.461Z,98.88
2022-11-29T22:15:34.999Z,98.83
2022-11-29T22:18:42.259Z,98.79
2022-11-29T22:21:47.109Z,98.40
2022-11-29T22:24:50.194Z,98.53
2022-11-29T22:27:53.316Z,99.23
2022-11-29T22:31:02.677Z,98.58
2022-11-29T22:34:07.042Z,97.78
2022-11-29T22:37:10.544Z,98.20
2022-11-29T22:40:14.371Z,98.31
2022-11-29T22:43:18.497Z,98.86
2022-11-29T22:46:22.638Z,99.43
2022-11-29T22:49:26.828Z,99.22
2022-11-29T22:52:30.808Z,99.49
2022-11-29T22:55:33.748Z,99.30
2022-11-29T22:58:37.029Z,99.03
2022-11-29T23:01:42.239Z,99.62
2022-11-29T23:04:47.335Z,99.23
2022-11-29T23:07:55.626Z,99.53
2022-11-29T23:11:00.510Z,99.59
2022-11-29T23:14:03.689Z,99.30
2022-11-29T23:17:06.931Z,99.50
2022-11-29T23:20:12.770Z,99.19
2022-11-29T23:23:16.866Z,99.48
2022-11-29T23:26:23.175Z,99.75
2022-11-29T23:29:28.414Z,99.25
2022-11-29T23:32:32.564Z,99.00
2022-11-29T23:35:38.029Z,99.05
2022-11-29T23:38:42.246Z,98.93
2022-11-29T23:41:46.464Z,98.69
2022-11-29T23:44:49.506Z,98.87
2022-11-29T23:47:52.357Z,98.83
2022-11-29T23:50:59.689Z,98.93
2022-11-29T23:54:02.547Z,99.04
2022-11-29T23:57:05.618Z,99.03
